sensor_id;sensor_type;location;lat;lon;timestamp;pressure;altitude;pressure_sealevel;temperature;humidity
68941;BME280;55982;51.476;7.552;2023-06-10T00:00:13;99656.09;;;18.95;100.00
68941;BME280;55982;51.476;7.552;2023-06-10T00:02:41;99657.81;;;18.71;100.00
68941;BME280;55982;51.476;7.552;2023-06-10T00:05:07;99649.31;;;18.53;100.00
68941;BME280;55982;51.476;7.552;2023-06-10T00:07:36;99651.34;;;18.36;100.00
68941;BME280;55982;51.476;7.552;2023-06-10T00:10:07;99653.66;;;18.27;100.00
68941;BME280;55982;51.476;7.552;2023-06-10T00:12:33;99652.66;;;18.43;100.00
68941;BME280;55982;51.476;7.552;2023-06-10T00:15:03;99656.03;;;18.32;100.00
68941;BME280;55982;51.476;7.552;2023-06-10T00:17:30;99644.78;;;18.28;100.00
68941;BME280;55982;51.476;7.552;2023-06-10T00:19:55;99658.09;;;18.14;100.00
68941;BME280;55982;51.476;7.552;2023-06-10T00:22:20;99656.59;;;18.10;100.00
68941;BME280;55982;51.476;7.552;2023-06-10T00:24:47;99654.56;;;18.01;100.00
68941;BME280;55982;51.476;7.552;2023-06-10T00:27:12;99656.13;;;17.91;100.00
68941;BME280;55982;51.476;7.552;2023-06-10T00:29:38;99656.72;;;17.82;100.00
68941;BME280;55982;51.476;7.552;2023-06-10T00:32:04;99657.31;;;17.73;100.00
68941;BME280;55982;51.476;7.552;2023-06-10T00:34:30;99655.16;;;17.66;100.00
68941;BME280;55982;51.476;7.552;2023-06-10T00:36:55;99654.72;;;17.59;100.00
68941;BME280;55982;51.476;7.552;2023-06-10T00:39:21;99657.38;;;17.59;100.00
68941;BME280;55982;51.476;7.552;2023-06-10T00:41:46;99663.41;;;17.61;100.00
68941;BME280;55982;51.476;7.552;2023-06-10T00:44:12;99656.97;;;17.65;100.00
68941;BME280;55982;51.476;7.552;2023-06-10T00:46:37;99657.91;;;17.64;100.00
68941;BME280;55982;51.476;7.552;2023-06-10T00:49:03;99657.06;;;17.64;100.00
68941;BME280;55982;51.476;7.552;2023-06-10T00:51:28;99650.94;;;17.63;100.00
68941;BME280;55982;51.476;7.552;2023-06-10T00:53:54;99656.00;;;17.66;100.00
68941;BME280;55982;51.476;7.552;2023-06-10T00:56:20;99665.47;;;17.56;100.00
68941;BME280;55982;51.476;7.552;2023-06-10T00:58:47;99661.91;;;17.29;100.00
68941;BME280;55982;51.476;7.552;2023-06-10T01:01:13;99659.56;;;17.24;100.00
68941;BME280;55982;51.476;7.552;2023-06-10T01:03:39;99660.06;;;17.17;100.00
68941;BME280;55982;51.476;7.552;2023-06-10T01:08:50;99655.91;;;17.13;100.00
68941;BME280;55982;51.476;7.552;2023-06-10T01:11:26;99666.66;;;17.10;100.00
68941;BME280;55982;51.476;7.552;2023-06-10T01:13:55;99663.25;;;17.08;100.00
68941;BME280;55982;51.476;7.552;2023-06-10T01:16:21;99660.25;;;17.00;100.00
68941;BME280;55982;51.476;7.552;2023-06-10T01:18:47;99669.09;;;16.85;100.00
68941;BME280;55982;51.476;7.552;2023-06-10T01:21:22;99677.53;;;16.47;100.00
68941;BME280;55982;51.476;7.552;2023-06-10T01:23:55;99676.81;;;16.30;100.00
68941;BME280;55982;51.476;7.552;2023-06-10T01:26:28;99675.59;;;16.35;100.00
68941;BME280;55982;51.476;7.552;2023-06-10T01:31:51;99677.03;;;16.41;100.00
68941;BME280;55982;51.476;7.552;2023-06-10T01:34:21;99672.59;;;16.41;100.00
68941;BME280;55982;51.476;7.552;2023-06-10T01:36:49;99676.00;;;16.43;100.00
68941;BME280;55982;51.476;7.552;2023-06-10T01:39:17;99678.78;;;16.26;100.00
68941;BME280;55982;51.476;7.552;2023-06-10T01:41:44;99678.72;;;16.12;100.00
68941;BME280;55982;51.476;7.552;2023-06-10T01:44:09;99679.75;;;16.10;100.00
68941;BME280;55982;51.476;7.552;2023-06-10T01:46:35;99685.38;;;16.19;100.00
68941;BME280;55982;51.476;7.552;2023-06-10T01:49:01;99680.66;;;16.24;100.00
68941;BME280;55982;51.476;7.552;2023-06-10T01:51:26;99681.41;;;16.26;100.00
68941;BME280;55982;51.476;7.552;2023-06-10T01:53:52;99676.03;;;16.28;100.00
68941;BME280;55982;51.476;7.552;2023-06-10T01:56:17;99673.97;;;16.33;100.00
68941;BME280;55982;51.476;7.552;2023-06-10T01:58:45;99678.44;;;16.32;100.00
68941;BME280;55982;51.476;7.552;2023-06-10T02:01:10;99680.66;;;16.24;100.00
68941;BME280;55982;51.476;7.552;2023-06-10T02:03:36;99682.22;;;16.13;100.00
68941;BME280;55982;51.476;7.552;2023-06-10T02:06:02;99684.19;;;16.09;100.00
68941;BME280;55982;51.476;7.552;2023-06-10T02:08:27;99677.50;;;15.88;100.00
68941;BME280;55982;51.476;7.552;2023-06-10T02:10:53;99681.25;;;15.84;100.00
68941;BME280;55982;51.476;7.552;2023-06-10T02:13:19;99678.00;;;15.79;100.00
68941;BME280;55982;51.476;7.552;2023-06-10T02:15:44;99686.69;;;15.81;100.00
68941;BME280;55982;51.476;7.552;2023-06-10T02:18:10;99686.44;;;15.86;100.00
68941;BME280;55982;51.476;7.552;2023-06-10T02:20:37;99684.09;;;15.66;100.00
68941;BME280;55982;51.476;7.552;2023-06-10T02:23:03;99688.41;;;15.51;100.00
68941;BME280;55982;51.476;7.552;2023-06-10T02:25:28;99694.25;;;15.40;100.00
68941;BME280;55982;51.476;7.552;2023-06-10T02:27:54;99701.44;;;15.37;100.00
68941;BME280;55982;51.476;7.552;2023-06-10T02:30:19;99699.75;;;15.36;100.00
68941;BME280;55982;51.476;7.552;2023-06-10T02:32:44;99697.72;;;15.41;100.00
68941;BME280;55982;51.476;7.552;2023-06-10T02:35:16;99704.75;;;15.42;100.00
68941;BME280;55982;51.476;7.552;2023-06-10T02:37:43;99704.84;;;15.39;100.00
68941;BME280;55982;51.476;7.552;2023-06-10T02:40:09;99704.03;;;15.38;100.00
68941;BME280;55982;51.476;7.552;2023-06-10T02:42:35;99702.41;;;15.36;100.00
68941;BME280;55982;51.476;7.552;2023-06-10T02:45:00;99705.28;;;15.31;100.00
68941;BME280;55982;51.476;7.552;2023-06-10T02:47:26;99705.13;;;15.34;100.00
68941;BME280;55982;51.476;7.552;2023-06-10T02:49:51;99702.22;;;15.39;100.00
68941;BME280;55982;51.476;7.552;2023-06-10T02:52:17;99709.44;;;15.35;100.00
68941;BME280;55982;51.476;7.552;2023-06-10T02:54:42;99701.81;;;15.31;100.00
68941;BME280;55982;51.476;7.552;2023-06-10T02:57:07;99705.00;;;15.20;100.00
68941;BME280;55982;51.476;7.552;2023-06-10T02:59:33;99712.66;;;15.09;100.00
68941;BME280;55982;51.476;7.552;2023-06-10T03:01:58;99711.19;;;15.04;100.00
68941;BME280;55982;51.476;7.552;2023-06-10T03:04:26;99709.66;;;15.00;100.00
68941;BME280;55982;51.476;7.552;2023-06-10T03:06:54;99710.41;;;15.02;100.00
68941;BME280;55982;51.476;7.552;2023-06-10T03:09:19;99708.38;;;15.07;100.00
68941;BME280;55982;51.476;7.552;2023-06-10T03:11:45;99702.97;;;15.10;100.00
68941;BME280;55982;51.476;7.552;2023-06-10T03:14:10;99705.59;;;15.10;100.00
68941;BME280;55982;51.476;7.552;2023-06-10T03:16:35;99709.31;;;15.06;100.00
68941;BME280;55982;51.476;7.552;2023-06-10T03:19:04;99709.31;;;15.06;100.00
68941;BME280;55982;51.476;7.552;2023-06-10T03:21:30;99703.28;;;15.04;100.00
68941;BME280;55982;51.476;7.552;2023-06-10T03:23:55;99710.94;;;15.08;100.00
68941;BME280;55982;51.476;7.552;2023-06-10T03:26:21;99709.16;;;15.09;100.00
68941;BME280;55982;51.476;7.552;2023-06-10T03:28:46;99713.31;;;15.13;100.00
68941;BME280;55982;51.476;7.552;2023-06-10T03:31:12;99715.28;;;15.09;100.00
68941;BME280;55982;51.476;7.552;2023-06-10T03:33:37;99713.28;;;14.97;100.00
68941;BME280;55982;51.476;7.552;2023-06-10T03:36:04;99718.97;;;14.90;100.00
68941;BME280;55982;51.476;7.552;2023-06-10T03:38:29;99722.06;;;14.81;100.00
68941;BME280;55982;51.476;7.552;2023-06-10T03:40:55;99726.78;;;14.74;100.00
68941;BME280;55982;51.476;7.552;2023-06-10T03:43:20;99718.38;;;14.68;100.00
68941;BME280;55982;51.476;7.552;2023-06-10T03:45:46;99729.59;;;14.71;100.00
68941;BME280;55982;51.476;7.552;2023-06-10T03:48:13;99729.81;;;14.66;100.00
68941;BME280;55982;51.476;7.552;2023-06-10T03:50:38;99732.53;;;14.65;100.00
68941;BME280;55982;51.476;7.552;2023-06-10T03:53:04;99737.72;;;14.66;100.00
68941;BME280;55982;51.476;7.552;2023-06-10T03:55:29;99745.63;;;14.66;100.00
68941;BME280;55982;51.476;7.552;2023-06-10T03:57:56;99750.59;;;14.73;100.00
68941;BME280;55982;51.476;7.552;2023-06-10T04:00:21;99750.09;;;14.82;100.00
68941;BME280;55982;51.476;7.552;2023-06-10T04:02:47;99748.09;;;14.87;100.00
68941;BME280;55982;51.476;7.552;2023-06-10T04:05:15;99744.75;;;15.00;100.00
68941;BME280;55982;51.476;7.552;2023-06-10T04:07:41;99741.38;;;15.14;100.00
68941;BME280;55982;51.476;7.552;2023-06-10T04:10:08;99740.72;;;15.26;100.00
68941;BME280;55982;51.476;7.552;2023-06-10T04:12:34;99744.34;;;15.40;100.00
68941;BME280;55982;51.476;7.552;2023-06-10T04:15:00;99746.94;;;15.57;100.00
68941;BME280;55982;51.476;7.552;2023-06-10T04:17:25;99744.75;;;15.66;100.00
68941;BME280;55982;51.476;7.552;2023-06-10T04:19:51;99743.03;;;15.80;100.00
68941;BME280;55982;51.476;7.552;2023-06-10T04:22:17;99742.50;;;15.89;100.00
68941;BME280;55982;51.476;7.552;2023-06-10T04:24:43;99740.22;;;15.99;100.00
68941;BME280;55982;51.476;7.552;2023-06-10T04:27:08;99744.03;;;16.09;100.00
68941;BME280;55982;51.476;7.552;2023-06-10T04:29:33;99748.63;;;16.21;100.00
68941;BME280;55982;51.476;7.552;2023-06-10T04:31:59;99750.97;;;16.25;100.00
68941;BME280;55982;51.476;7.552;2023-06-10T04:34:26;99747.06;;;16.32;100.00
68941;BME280;55982;51.476;7.552;2023-06-10T04:36:52;99741.44;;;16.38;100.00
68941;BME280;55982;51.476;7.552;2023-06-10T04:39:17;99742.78;;;16.45;100.00
68941;BME280;55982;51.476;7.552;2023-06-10T04:41:43;99743.22;;;16.54;100.00
68941;BME280;55982;51.476;7.552;2023-06-10T04:44:09;99743.44;;;16.65;100.00
68941;BME280;55982;51.476;7.552;2023-06-10T04:46:35;99746.63;;;16.70;100.00
68941;BME280;55982;51.476;7.552;2023-06-10T04:49:01;99737.06;;;16.83;100.00
68941;BME280;55982;51.476;7.552;2023-06-10T04:51:26;99742.66;;;16.92;100.00
68941;BME280;55982;51.476;7.552;2023-06-10T04:53:51;99738.03;;;16.96;100.00
68941;BME280;55982;51.476;7.552;2023-06-10T04:56:17;99738.69;;;16.99;100.00
68941;BME280;55982;51.476;7.552;2023-06-10T04:58:42;99731.97;;;17.08;100.00
68941;BME280;55982;51.476;7.552;2023-06-10T05:01:08;99736.72;;;17.17;100.00
68941;BME280;55982;51.476;7.552;2023-06-10T05:03:33;99741.63;;;17.23;100.00
68941;BME280;55982;51.476;7.552;2023-06-10T05:05:58;99735.94;;;17.29;100.00
68941;BME280;55982;51.476;7.552;2023-06-10T05:08:24;99733.69;;;17.37;100.00
68941;BME280;55982;51.476;7.552;2023-06-10T05:10:49;99734.63;;;17.50;100.00
68941;BME280;55982;51.476;7.552;2023-06-10T05:13:16;99736.16;;;17.54;100.00
68941;BME280;55982;51.476;7.552;2023-06-10T05:15:41;99733.69;;;17.65;100.00
68941;BME280;55982;51.476;7.552;2023-06-10T05:18:10;99741.81;;;17.76;100.00
68941;BME280;55982;51.476;7.552;2023-06-10T05:20:35;99732.81;;;17.79;100.00
68941;BME280;55982;51.476;7.552;2023-06-10T05:23:00;99734.03;;;17.87;100.00
68941;BME280;55982;51.476;7.552;2023-06-10T05:25:26;99723.44;;;17.87;100.00
68941;BME280;55982;51.476;7.552;2023-06-10T05:27:52;99726.94;;;18.14;100.00
68941;BME280;55982;51.476;7.552;2023-06-10T05:30:17;99731.28;;;18.15;100.00
68941;BME280;55982;51.476;7.552;2023-06-10T05:32:43;99728.69;;;18.28;100.00
68941;BME280;55982;51.476;7.552;2023-06-10T05:35:09;99730.59;;;18.39;100.00
68941;BME280;55982;51.476;7.552;2023-06-10T05:37:34;99732.13;;;18.43;100.00
68941;BME280;55982;51.476;7.552;2023-06-10T05:40:02;99740.25;;;18.54;100.00
68941;BME280;55982;51.476;7.552;2023-06-10T05:42:29;99733.75;;;18.58;100.00
68941;BME280;55982;51.476;7.552;2023-06-10T05:44:54;99733.00;;;18.56;100.00
68941;BME280;55982;51.476;7.552;2023-06-10T05:47:20;99730.31;;;18.82;100.00
68941;BME280;55982;51.476;7.552;2023-06-10T05:49:45;99734.88;;;18.93;100.00
68941;BME280;55982;51.476;7.552;2023-06-10T05:52:13;99730.72;;;18.89;100.00
68941;BME280;55982;51.476;7.552;2023-06-10T05:54:38;99736.47;;;19.08;100.00
68941;BME280;55982;51.476;7.552;2023-06-10T05:57:04;99735.63;;;19.33;100.00
68941;BME280;55982;51.476;7.552;2023-06-10T05:59:31;99741.38;;;19.27;100.00
68941;BME280;55982;51.476;7.552;2023-06-10T06:01:56;99739.03;;;19.22;100.00
68941;BME280;55982;51.476;7.552;2023-06-10T06:04:22;99739.22;;;19.44;100.00
68941;BME280;55982;51.476;7.552;2023-06-10T06:06:47;99743.69;;;19.56;100.00
68941;BME280;55982;51.476;7.552;2023-06-10T06:09:12;99738.94;;;19.85;100.00
68941;BME280;55982;51.476;7.552;2023-06-10T06:11:38;99738.91;;;19.97;100.00
68941;BME280;55982;51.476;7.552;2023-06-10T06:14:03;99744.16;;;20.10;100.00
68941;BME280;55982;51.476;7.552;2023-06-10T06:16:29;99734.59;;;20.07;100.00
68941;BME280;55982;51.476;7.552;2023-06-10T06:18:54;99740.94;;;20.30;100.00
68941;BME280;55982;51.476;7.552;2023-06-10T06:21:19;99738.84;;;20.23;100.00
68941;BME280;55982;51.476;7.552;2023-06-10T06:23:45;99734.84;;;20.52;100.00
68941;BME280;55982;51.476;7.552;2023-06-10T06:26:10;99728.16;;;20.70;100.00
68941;BME280;55982;51.476;7.552;2023-06-10T06:28:36;99732.50;;;21.39;100.00
68941;BME280;55982;51.476;7.552;2023-06-10T06:31:01;99731.06;;;21.57;100.00
68941;BME280;55982;51.476;7.552;2023-06-10T06:33:26;99739.59;;;22.16;100.00
68941;BME280;55982;51.476;7.552;2023-06-10T06:35:52;99742.53;;;21.57;100.00
68941;BME280;55982;51.476;7.552;2023-06-10T06:38:17;99741.81;;;21.44;100.00
68941;BME280;55982;51.476;7.552;2023-06-10T06:40:42;99753.94;;;21.70;100.00
68941;BME280;55982;51.476;7.552;2023-06-10T06:43:08;99742.09;;;21.86;100.00
68941;BME280;55982;51.476;7.552;2023-06-10T06:45:33;99744.22;;;22.03;100.00
68941;BME280;55982;51.476;7.552;2023-06-10T06:47:59;99739.53;;;21.95;100.00
68941;BME280;55982;51.476;7.552;2023-06-10T06:50:24;99739.91;;;22.54;100.00
68941;BME280;55982;51.476;7.552;2023-06-10T06:52:50;99734.53;;;22.13;100.00
68941;BME280;55982;51.476;7.552;2023-06-10T06:55:15;99744.28;;;22.66;100.00
68941;BME280;55982;51.476;7.552;2023-06-10T06:57:40;99745.16;;;23.17;100.00
68941;BME280;55982;51.476;7.552;2023-06-10T07:00:06;99743.31;;;22.88;100.00
68941;BME280;55982;51.476;7.552;2023-06-10T07:02:33;99746.50;;;23.02;100.00
68941;BME280;55982;51.476;7.552;2023-06-10T07:04:58;99748.63;;;22.56;100.00
68941;BME280;55982;51.476;7.552;2023-06-10T07:07:24;99749.56;;;22.45;100.00
68941;BME280;55982;51.476;7.552;2023-06-10T07:09:49;99744.97;;;23.50;100.00
68941;BME280;55982;51.476;7.552;2023-06-10T07:12:15;99748.53;;;23.60;100.00
68941;BME280;55982;51.476;7.552;2023-06-10T07:14:41;99755.31;;;23.74;100.00
68941;BME280;55982;51.476;7.552;2023-06-10T07:17:06;99763.63;;;24.11;100.00
68941;BME280;55982;51.476;7.552;2023-06-10T07:19:31;99753.03;;;23.70;100.00
68941;BME280;55982;51.476;7.552;2023-06-10T07:21:57;99754.06;;;24.27;100.00
68941;BME280;55982;51.476;7.552;2023-06-10T07:24:22;99754.94;;;24.57;100.00
68941;BME280;55982;51.476;7.552;2023-06-10T07:26:47;99759.41;;;24.18;100.00
68941;BME280;55982;51.476;7.552;2023-06-10T07:29:13;99749.88;;;24.82;100.00
68941;BME280;55982;51.476;7.552;2023-06-10T07:31:38;99751.41;;;25.60;98.80
68941;BME280;55982;51.476;7.552;2023-06-10T07:34:03;99749.91;;;25.75;100.00
68941;BME280;55982;51.476;7.552;2023-06-10T07:36:29;99747.97;;;25.67;96.58
68941;BME280;55982;51.476;7.552;2023-06-10T07:38:55;99753.72;;;25.35;90.05
68941;BME280;55982;51.476;7.552;2023-06-10T07:41:22;99754.53;;;25.46;94.55
68941;BME280;55982;51.476;7.552;2023-06-10T07:43:47;99768.13;;;25.15;90.25
68941;BME280;55982;51.476;7.552;2023-06-10T07:46:12;99765.28;;;25.26;97.53
68941;BME280;55982;51.476;7.552;2023-06-10T07:48:38;99760.00;;;24.88;100.00
68941;BME280;55982;51.476;7.552;2023-06-10T07:51:03;99755.94;;;24.84;99.34
68941;BME280;55982;51.476;7.552;2023-06-10T07:53:29;99758.28;;;25.16;92.63
68941;BME280;55982;51.476;7.552;2023-06-10T07:55:54;99763.31;;;25.28;99.79
68941;BME280;55982;51.476;7.552;2023-06-10T07:58:20;99753.69;;;25.55;95.07
68941;BME280;55982;51.476;7.552;2023-06-10T08:00:46;99761.59;;;25.47;91.81
68941;BME280;55982;51.476;7.552;2023-06-10T08:03:12;99765.03;;;25.20;95.85
68941;BME280;55982;51.476;7.552;2023-06-10T08:05:39;99755.69;;;26.07;83.48
68941;BME280;55982;51.476;7.552;2023-06-10T08:08:04;99754.66;;;27.05;90.54
68941;BME280;55982;51.476;7.552;2023-06-10T08:10:30;99760.84;;;25.91;82.88
68941;BME280;55982;51.476;7.552;2023-06-10T08:12:56;99754.44;;;26.28;82.67
68941;BME280;55982;51.476;7.552;2023-06-10T08:15:21;99758.56;;;25.96;89.64
68941;BME280;55982;51.476;7.552;2023-06-10T08:17:46;99766.88;;;25.66;87.40
68941;BME280;55982;51.476;7.552;2023-06-10T08:20:12;99764.81;;;26.41;81.88
68941;BME280;55982;51.476;7.552;2023-06-10T08:22:40;99760.97;;;26.96;83.18
68941;BME280;55982;51.476;7.552;2023-06-10T08:25:05;99765.13;;;26.11;78.55
68941;BME280;55982;51.476;7.552;2023-06-10T08:27:31;99767.84;;;26.46;81.23
68941;BME280;55982;51.476;7.552;2023-06-10T08:29:56;99762.13;;;25.87;84.29
68941;BME280;55982;51.476;7.552;2023-06-10T08:32:21;99765.41;;;26.88;88.16
68941;BME280;55982;51.476;7.552;2023-06-10T08:34:47;99775.16;;;26.89;90.74
68941;BME280;55982;51.476;7.552;2023-06-10T08:37:12;99762.19;;;27.28;77.58
68941;BME280;55982;51.476;7.552;2023-06-10T08:39:37;99770.59;;;27.50;76.48
68941;BME280;55982;51.476;7.552;2023-06-10T08:42:39;99771.59;;;27.83;76.48
68941;BME280;55982;51.476;7.552;2023-06-10T08:45:04;99775.63;;;27.79;69.82
68941;BME280;55982;51.476;7.552;2023-06-10T08:47:33;99765.72;;;27.02;72.70
68941;BME280;55982;51.476;7.552;2023-06-10T08:50:03;99765.41;;;27.57;80.35
68941;BME280;55982;51.476;7.552;2023-06-10T08:52:35;99768.00;;;27.66;81.59
68941;BME280;55982;51.476;7.552;2023-06-10T08:55:04;99769.53;;;29.09;72.98
68941;BME280;55982;51.476;7.552;2023-06-10T08:57:30;99764.81;;;28.54;70.68
68941;BME280;55982;51.476;7.552;2023-06-10T08:59:57;99764.41;;;29.62;69.79
68941;BME280;55982;51.476;7.552;2023-06-10T09:02:24;99759.75;;;29.40;65.43
68941;BME280;55982;51.476;7.552;2023-06-10T09:04:50;99757.28;;;28.74;67.89
68941;BME280;55982;51.476;7.552;2023-06-10T09:07:16;99762.81;;;29.21;65.81
68941;BME280;55982;51.476;7.552;2023-06-10T09:09:45;99763.94;;;29.58;69.64
68941;BME280;55982;51.476;7.552;2023-06-10T09:12:12;99767.03;;;29.15;65.44
68941;BME280;55982;51.476;7.552;2023-06-10T09:14:38;99765.00;;;29.33;64.72
68941;BME280;55982;51.476;7.552;2023-06-10T09:17:05;99765.50;;;29.37;63.02
68941;BME280;55982;51.476;7.552;2023-06-10T09:19:31;99748.84;;;29.17;66.79
68941;BME280;55982;51.476;7.552;2023-06-10T09:21:56;99759.78;;;29.24;61.27
68941;BME280;55982;51.476;7.552;2023-06-10T09:24:22;99751.31;;;29.43;69.50
68941;BME280;55982;51.476;7.552;2023-06-10T09:26:48;99756.47;;;29.76;65.26
68941;BME280;55982;51.476;7.552;2023-06-10T09:29:13;99758.34;;;29.68;62.13
68941;BME280;55982;51.476;7.552;2023-06-10T09:31:39;99759.31;;;29.83;61.84
68941;BME280;55982;51.476;7.552;2023-06-10T09:34:07;99761.19;;;29.66;66.76
68941;BME280;55982;51.476;7.552;2023-06-10T09:36:34;99759.41;;;29.11;63.41
68941;BME280;55982;51.476;7.552;2023-06-10T09:39:01;99758.38;;;29.52;60.53
68941;BME280;55982;51.476;7.552;2023-06-10T09:41:39;99768.19;;;28.80;65.42
68941;BME280;55982;51.476;7.552;2023-06-10T09:44:11;99769.19;;;28.87;61.76
68941;BME280;55982;51.476;7.552;2023-06-10T09:46:36;99776.66;;;29.18;66.64
68941;BME280;55982;51.476;7.552;2023-06-10T09:49:02;99763.84;;;29.20;61.33
68941;BME280;55982;51.476;7.552;2023-06-10T09:51:27;99770.09;;;28.30;62.98
68941;BME280;55982;51.476;7.552;2023-06-10T09:53:53;99760.38;;;28.53;71.14
68941;BME280;55982;51.476;7.552;2023-06-10T09:56:19;99759.75;;;29.40;65.82
68941;BME280;55982;51.476;7.552;2023-06-10T09:58:45;99761.28;;;29.18;62.61
68941;BME280;55982;51.476;7.552;2023-06-10T10:01:13;99763.63;;;30.61;60.37
68941;BME280;55982;51.476;7.552;2023-06-10T10:03:45;99755.00;;;30.89;57.85
68941;BME280;55982;51.476;7.552;2023-06-10T10:06:12;99762.09;;;32.29;59.01
68941;BME280;55982;51.476;7.552;2023-06-10T10:08:38;99757.09;;;30.25;57.66
68941;BME280;55982;51.476;7.552;2023-06-10T10:11:03;99755.19;;;30.34;57.46
68941;BME280;55982;51.476;7.552;2023-06-10T10:13:29;99751.81;;;29.54;59.34
68941;BME280;55982;51.476;7.552;2023-06-10T10:15:59;99759.13;;;30.23;63.47
68941;BME280;55982;51.476;7.552;2023-06-10T10:18:29;99757.66;;;29.66;60.49
68941;BME280;55982;51.476;7.552;2023-06-10T10:20:57;99748.78;;;30.35;56.03
68941;BME280;55982;51.476;7.552;2023-06-10T10:23:31;99749.22;;;29.69;55.81
68941;BME280;55982;51.476;7.552;2023-06-10T10:26:00;99740.22;;;29.93;55.86
68941;BME280;55982;51.476;7.552;2023-06-10T10:28:41;99741.88;;;30.32;58.88
68941;BME280;55982;51.476;7.552;2023-06-10T10:31:12;99736.03;;;29.82;56.01
68941;BME280;55982;51.476;7.552;2023-06-10T10:33:52;99741.63;;;29.81;56.57
68941;BME280;55982;51.476;7.552;2023-06-10T10:36:19;99742.38;;;30.81;58.78
68941;BME280;55982;51.476;7.552;2023-06-10T10:38:47;99742.72;;;31.01;53.63
68941;BME280;55982;51.476;7.552;2023-06-10T10:41:13;99747.09;;;31.02;59.12
68941;BME280;55982;51.476;7.552;2023-06-10T10:43:40;99744.06;;;31.19;52.03
68941;BME280;55982;51.476;7.552;2023-06-10T10:46:14;99748.50;;;31.49;53.19
68941;BME280;55982;51.476;7.552;2023-06-10T10:48:41;99744.25;;;31.18;52.28
68941;BME280;55982;51.476;7.552;2023-06-10T10:51:11;99731.00;;;32.10;53.20
68941;BME280;55982;51.476;7.552;2023-06-10T10:53:39;99739.19;;;31.52;52.36
68941;BME280;55982;51.476;7.552;2023-06-10T10:56:07;99733.59;;;30.34;52.30
68941;BME280;55982;51.476;7.552;2023-06-10T10:58:33;99733.25;;;30.37;53.88
68941;BME280;55982;51.476;7.552;2023-06-10T11:00:59;99731.31;;;30.45;52.58
68941;BME280;55982;51.476;7.552;2023-06-10T11:03:28;99736.47;;;31.81;54.80
68941;BME280;55982;51.476;7.552;2023-06-10T11:05:57;99733.25;;;31.34;50.57
68941;BME280;55982;51.476;7.552;2023-06-10T11:10:57;99734.69;;;31.88;50.21
68941;BME280;55982;51.476;7.552;2023-06-10T11:13:22;99722.53;;;33.19;50.35
68941;BME280;55982;51.476;7.552;2023-06-10T11:15:49;99724.09;;;32.22;47.28
68941;BME280;55982;51.476;7.552;2023-06-10T11:18:26;99721.72;;;31.98;48.20
68941;BME280;55982;51.476;7.552;2023-06-10T11:20:53;99714.06;;;30.54;51.01
68941;BME280;55982;51.476;7.552;2023-06-10T11:26:19;99709.00;;;31.11;51.31
68941;BME280;55982;51.476;7.552;2023-06-10T11:31:27;99721.56;;;31.56;52.29
68941;BME280;55982;51.476;7.552;2023-06-10T11:33:55;99712.03;;;30.94;49.99
68941;BME280;55982;51.476;7.552;2023-06-10T11:36:21;99716.34;;;31.03;50.45
68941;BME280;55982;51.476;7.552;2023-06-10T11:38:47;99711.25;;;31.95;52.10
68941;BME280;55982;51.476;7.552;2023-06-10T11:41:17;99708.31;;;31.61;48.09
68941;BME280;55982;51.476;7.552;2023-06-10T11:43:46;99692.03;;;30.80;48.13
68941;BME280;55982;51.476;7.552;2023-06-10T11:46:12;99697.81;;;31.00;49.96
68941;BME280;55982;51.476;7.552;2023-06-10T11:48:37;99704.53;;;30.58;50.12
68941;BME280;55982;51.476;7.552;2023-06-10T11:51:07;99708.66;;;30.54;48.66
68941;BME280;55982;51.476;7.552;2023-06-10T11:53:33;99697.69;;;30.25;51.43
68941;BME280;55982;51.476;7.552;2023-06-10T11:55:58;99699.25;;;30.88;48.86
68941;BME280;55982;51.476;7.552;2023-06-10T11:58:24;99705.59;;;30.57;48.82
68941;BME280;55982;51.476;7.552;2023-06-10T12:00:51;99696.03;;;30.92;49.37
68941;BME280;55982;51.476;7.552;2023-06-10T12:03:19;99690.75;;;31.57;48.78
68941;BME280;55982;51.476;7.552;2023-06-10T12:06:04;99694.75;;;31.32;47.92
68941;BME280;55982;51.476;7.552;2023-06-10T12:08:30;99692.72;;;31.63;49.94
68941;BME280;55982;51.476;7.552;2023-06-10T12:10:56;99695.44;;;31.48;47.65
68941;BME280;55982;51.476;7.552;2023-06-10T12:13:23;99689.59;;;31.95;47.91
68941;BME280;55982;51.476;7.552;2023-06-10T12:15:49;99687.22;;;32.85;45.94
68941;BME280;55982;51.476;7.552;2023-06-10T12:18:22;99692.03;;;31.32;48.10
68941;BME280;55982;51.476;7.552;2023-06-10T12:20:48;99680.84;;;31.20;49.57
68941;BME280;55982;51.476;7.552;2023-06-10T12:23:14;99682.69;;;30.91;48.85
68941;BME280;55982;51.476;7.552;2023-06-10T12:25:50;99675.78;;;31.90;46.65
68941;BME280;55982;51.476;7.552;2023-06-10T12:28:17;99678.13;;;32.29;46.67
68941;BME280;55982;51.476;7.552;2023-06-10T12:30:44;99691.19;;;31.90;46.19
68941;BME280;55982;51.476;7.552;2023-06-10T12:33:16;99677.75;;;30.94;46.47
68941;BME280;55982;51.476;7.552;2023-06-10T12:35:52;99676.69;;;31.62;45.85
68941;BME280;55982;51.476;7.552;2023-06-10T12:38:25;99674.53;;;31.57;46.63
68941;BME280;55982;51.476;7.552;2023-06-10T12:40:53;99669.16;;;32.28;43.24
68941;BME280;55982;51.476;7.552;2023-06-10T12:43:20;99674.09;;;31.89;44.24
68941;BME280;55982;51.476;7.552;2023-06-10T12:45:46;99656.03;;;32.47;45.06
68941;BME280;55982;51.476;7.552;2023-06-10T12:48:21;99674.53;;;30.99;44.60
68941;BME280;55982;51.476;7.552;2023-06-10T12:50:55;99661.81;;;31.72;46.33
68941;BME280;55982;51.476;7.552;2023-06-10T12:53:21;99664.19;;;31.46;47.38
68941;BME280;55982;51.476;7.552;2023-06-10T12:55:56;99661.88;;;32.99;45.99
68941;BME280;55982;51.476;7.552;2023-06-10T12:58:23;99666.91;;;33.70;43.45
68941;BME280;55982;51.476;7.552;2023-06-10T13:00:48;99662.56;;;31.66;44.38
68941;BME280;55982;51.476;7.552;2023-06-10T13:03:14;99656.81;;;31.69;44.61
68941;BME280;55982;51.476;7.552;2023-06-10T13:05:40;99647.16;;;32.38;47.53